createdAt,value
2018-08-24T00:00:13.206Z,0
2018-08-24T00:00:39.342Z,0
2018-08-24T00:01:05.482Z,0
2018-08-24T00:01:31.645Z,0
2018-08-24T00:01:57.798Z,0
2018-08-24T00:02:23.938Z,0
2018-08-24T00:02:50.098Z,0
2018-08-24T00:03:16.240Z,0
2018-08-24T00:03:42.397Z,0
2018-08-24T00:04:08.537Z,0
2018-08-24T00:04:34.672Z,0
2018-08-24T00:05:00.819Z,0
2018-08-24T00:05:26.973Z,0
2018-08-24T00:05:53.110Z,0
2018-08-24T00:06:19.243Z,0
2018-08-24T00:06:45.396Z,0
2018-08-24T00:07:11.544Z,0
2018-08-24T00:07:37.700Z,0
2018-08-24T00:08:03.839Z,0
2018-08-24T00:08:29.974Z,0
2018-08-24T00:08:56.138Z,0
2018-08-24T00:09:22.276Z,0
2018-08-24T00:09:48.417Z,0
2018-08-24T00:10:14.547Z,0
2018-08-24T00:10:40.699Z,0
2018-08-24T00:11:06.834Z,0
2018-08-24T00:11:32.992Z,0
2018-08-24T00:11:59.133Z,0
2018-08-24T00:12:25.272Z,0
2018-08-24T00:12:51.430Z,0
2018-08-24T00:13:17.565Z,0
2018-08-24T00:13:43.702Z,0
2018-08-24T00:14:09.866Z,0
2018-08-24T00:14:36.000Z,0
2018-08-24T00:15:02.127Z,0
2018-08-24T00:15:28.289Z,0
2018-08-24T00:15:54.446Z,0
2018-08-24T00:16:20.590Z,0
2018-08-24T00:16:46.716Z,0
2018-08-24T00:17:12.876Z,0
2018-08-24T00:17:39.037Z,0
2018-08-24T00:18:05.200Z,0
2018-08-24T00:18:31.344Z,0
2018-08-24T00:18:57.475Z,0
2018-08-24T00:19:23.611Z,0
2018-08-24T00:19:49.744Z,0
2018-08-24T00:20:15.875Z,0
2018-08-24T00:20:42.034Z,0
2018-08-24T00:21:08.171Z,0
2018-08-24T00:21:34.303Z,0
2018-08-24T00:22:00.464Z,0
2018-08-24T00:22:26.598Z,0
2018-08-24T00:22:52.776Z,0
2018-08-24T00:23:18.942Z,0
2018-08-24T00:23:45.072Z,0
2018-08-24T00:24:11.219Z,0
2018-08-24T00:24:37.354Z,0
2018-08-24T00:25:03.490Z,0
2018-08-24T00:25:29.632Z,0
2018-08-24T00:25:55.760Z,0
2018-08-24T00:26:21.891Z,0
2018-08-24T00:26:48.031Z,0
2018-08-24T00:27:14.168Z,0
2018-08-24T00:27:40.300Z,0
2018-08-24T00:28:06.431Z,0
2018-08-24T00:28:32.568Z,0
2018-08-24T00:28:58.708Z,0
2018-08-24T00:29:24.859Z,0
2018-08-24T00:29:50.996Z,0
2018-08-24T00:30:17.183Z,0
2018-08-24T00:30:43.316Z,0
2018-08-24T00:31:09.472Z,0
2018-08-24T00:31:35.643Z,0
2018-08-24T00:32:01.762Z,0
2018-08-24T00:32:27.895Z,0
2018-08-24T00:32:54.036Z,0
2018-08-24T00:33:20.173Z,0
2018-08-24T00:33:46.311Z,0
2018-08-24T00:34:12.450Z,0
2018-08-24T00:34:38.603Z,0
2018-08-24T00:35:04.764Z,0
2018-08-24T00:35:30.928Z,0
2018-08-24T00:35:57.060Z,0
2018-08-24T00:36:23.201Z,0
2018-08-24T00:36:49.339Z,0
2018-08-24T00:37:15.497Z,0
2018-08-24T00:37:41.631Z,0
2018-08-24T00:38:07.774Z,0
2018-08-24T00:38:33.905Z,0
2018-08-24T00:39:00.066Z,0
2018-08-24T00:39:26.228Z,0
2018-08-24T00:39:52.361Z,0
2018-08-24T00:40:18.496Z,0
2018-08-24T00:40:44.630Z,0
2018-08-24T00:41:10.771Z,0
2018-08-24T00:41:36.901Z,0
2018-08-24T00:42:03.042Z,0
2018-08-24T00:42:29.172Z,0
2018-08-24T00:42:55.328Z,0
2018-08-24T00:43:21.484Z,0
2018-08-24T00:43:47.628Z,0
2018-08-24T00:44:13.781Z,0
2018-08-24T00:44:39.920Z,0
2018-08-24T00:45:06.054Z,0
2018-08-24T00:45:32.210Z,0
2018-08-24T00:45:58.344Z,0
2018-08-24T00:46:24.511Z,0
2018-08-24T00:46:50.639Z,0
2018-08-24T00:47:16.802Z,0
2018-08-24T00:47:42.938Z,0
2018-08-24T00:48:09.069Z,0
2018-08-24T00:48:35.208Z,0
2018-08-24T00:49:01.343Z,0
2018-08-24T00:49:27.479Z,0
2018-08-24T00:49:53.646Z,0
2018-08-24T00:50:19.789Z,0
2018-08-24T00:50:45.940Z,0
2018-08-24T00:51:12.076Z,0
2018-08-24T00:51:38.204Z,0
2018-08-24T00:52:04.344Z,0
2018-08-24T00:52:30.502Z,0
2018-08-24T00:52:56.640Z,0
2018-08-24T00:53:22.777Z,0
2018-08-24T00:53:48.915Z,0
2018-08-24T00:54:15.050Z,0
2018-08-24T00:54:41.194Z,0
2018-08-24T00:55:07.348Z,0
2018-08-24T00:55:33.481Z,0
2018-08-24T00:55:59.641Z,0
2018-08-24T00:56:25.773Z,0
2018-08-24T00:56:51.914Z,0
2018-08-24T00:57:18.090Z,0
2018-08-24T00:57:44.230Z,0
2018-08-24T00:58:10.358Z,0
2018-08-24T00:58:36.502Z,0
2018-08-24T00:59:02.643Z,0
2018-08-24T00:59:28.771Z,0
2018-08-24T00:59:54.927Z,0
2018-08-24T01:00:21.064Z,0
2018-08-24T01:00:47.194Z,0
2018-08-24T01:01:13.335Z,0
2018-08-24T01:01:39.472Z,0
2018-08-24T01:02:05.616Z,0
2018-08-24T01:02:31.741Z,0
2018-08-24T01:02:57.869Z,0
2018-08-24T01:03:24.011Z,0
2018-08-24T01:03:50.143Z,0
2018-08-24T01:04:16.299Z,0
2018-08-24T01:04:42.435Z,0
2018-08-24T01:05:08.593Z,0
2018-08-24T01:05:34.726Z,0
2018-08-24T01:06:00.869Z,0
2018-08-24T01:06:26.997Z,0
2018-08-24T01:06:53.139Z,0
2018-08-24T01:07:19.274Z,0
2018-08-24T01:07:45.457Z,0
2018-08-24T01:08:11.597Z,0
2018-08-24T01:08:37.736Z,0
2018-08-24T01:09:03.867Z,0
2018-08-24T01:09:30.055Z,0
2018-08-24T01:09:56.217Z,0
2018-08-24T01:10:22.395Z,0
2018-08-24T01:10:48.529Z,0
2018-08-24T01:11:14.661Z,0
2018-08-24T01:11:40.791Z,0
2018-08-24T01:12:06.934Z,0
2018-08-24T01:12:33.072Z,0
2018-08-24T01:12:59.212Z,0
2018-08-24T01:13:25.346Z,0
2018-08-24T01:13:51.487Z,0
2018-08-24T01:14:17.622Z,0
2018-08-24T01:14:43.779Z,0
2018-08-24T01:15:09.915Z,0
2018-08-24T01:15:36.052Z,0
2018-08-24T01:16:02.229Z,0
2018-08-24T01:16:28.369Z,0
2018-08-24T01:16:54.509Z,0
2018-08-24T01:17:20.693Z,0
2018-08-24T01:17:46.831Z,0
2018-08-24T01:18:12.955Z,0
2018-08-24T01:18:39.099Z,0
2018-08-24T01:19:05.250Z,0
2018-08-24T01:19:31.431Z,0
2018-08-24T01:19:57.569Z,0
2018-08-24T01:20:23.711Z,0
2018-08-24T01:20:49.843Z,0
2018-08-24T01:21:16.004Z,0
2018-08-24T01:21:42.140Z,0
2018-08-24T01:22:08.295Z,0
2018-08-24T01:22:34.432Z,0
2018-08-24T01:23:00.610Z,0
2018-08-24T01:23:26.743Z,0
2018-08-24T01:23:52.904Z,0
2018-08-24T01:24:19.041Z,0
2018-08-24T01:24:45.180Z,0
2018-08-24T01:25:11.310Z,0
2018-08-24T01:25:37.464Z,0
2018-08-24T01:26:03.603Z,0
2018-08-24T01:26:29.740Z,0
2018-08-24T01:26:55.880Z,0
2018-08-24T01:27:22.022Z,0
2018-08-24T01:27:48.155Z,0
2018-08-24T01:28:14.291Z,0
2018-08-24T01:28:40.421Z,0
2018-08-24T01:29:06.554Z,0
2018-08-24T01:29:32.691Z,0
2018-08-24T01:29:58.855Z,0
2018-08-24T01:30:24.983Z,0
2018-08-24T01:30:51.120Z,0
2018-08-24T01:31:17.263Z,0
2018-08-24T01:31:43.432Z,0
2018-08-24T01:32:09.575Z,0
2018-08-24T01:32:35.718Z,0
2018-08-24T01:33:01.871Z,0
2018-08-24T01:33:28.001Z,0
2018-08-24T01:33:54.164Z,0
2018-08-24T01:34:20.276Z,0
2018-08-24T01:34:46.421Z,0
2018-08-24T01:35:12.557Z,0
2018-08-24T01:35:38.770Z,0
2018-08-24T01:36:04.945Z,0
2018-08-24T01:36:31.102Z,0
2018-08-24T01:36:57.262Z,0
2018-08-24T01:37:23.389Z,0
2018-08-24T01:37:49.513Z,0
2018-08-24T01:38:15.656Z,0
2018-08-24T01:38:41.796Z,0
2018-08-24T01:39:07.921Z,0
2018-08-24T01:39:34.091Z,0
2018-08-24T01:40:00.221Z,0
2018-08-24T01:40:26.361Z,0
2018-08-24T01:40:52.491Z,0
2018-08-24T01:41:18.631Z,0
2018-08-24T01:41:44.764Z,0
2018-08-24T01:42:10.900Z,0
2018-08-24T01:42:37.036Z,0
2018-08-24T01:43:03.178Z,0
2018-08-24T01:43:29.315Z,0
2018-08-24T01:43:55.459Z,0
2018-08-24T01:44:21.591Z,0
2018-08-24T01:44:47.736Z,0
2018-08-24T01:45:13.862Z,0
2018-08-24T01:45:39.995Z,0
2018-08-24T01:46:06.135Z,0
2018-08-24T01:46:32.269Z,0
2018-08-24T01:46:58.407Z,0
2018-08-24T01:47:24.544Z,0
2018-08-24T01:47:50.683Z,0
2018-08-24T01:48:16.821Z,0
2018-08-24T01:48:42.953Z,0
2018-08-24T01:49:09.093Z,0
2018-08-24T01:49:35.224Z,0
2018-08-24T01:50:01.360Z,0
2018-08-24T01:50:27.504Z,0
2018-08-24T01:50:53.656Z,0
2018-08-24T01:51:19.795Z,0
2018-08-24T01:51:45.943Z,0
2018-08-24T01:52:12.088Z,0
2018-08-24T01:52:38.216Z,0
2018-08-24T01:53:04.419Z,0
2018-08-24T01:53:30.508Z,0
2018-08-24T01:53:56.646Z,0
2018-08-24T01:54:22.785Z,0
2018-08-24T01:54:48.920Z,0
2018-08-24T01:55:15.056Z,0
2018-08-24T01:55:41.192Z,0
2018-08-24T01:56:07.319Z,0
2018-08-24T01:56:33.459Z,0
2018-08-24T01:56:59.625Z,0
2018-08-24T01:57:25.752Z,0
2018-08-24T01:57:51.891Z,0
2018-08-24T01:58:18.052Z,0
2018-08-24T01:58:44.190Z,0
2018-08-24T01:59:10.411Z,0
2018-08-24T01:59:36.483Z,0
2018-08-24T02:00:02.635Z,0
2018-08-24T02:00:28.768Z,0
2018-08-24T02:00:54.907Z,0
2018-08-24T02:01:21.043Z,0
2018-08-24T02:01:47.197Z,0
2018-08-24T02:02:13.342Z,0
2018-08-24T02:02:39.475Z,0
2018-08-24T02:03:05.619Z,0
2018-08-24T02:03:31.776Z,0
2018-08-24T02:03:57.913Z,0
2018-08-24T02:04:24.041Z,0
2018-08-24T02:04:50.178Z,0
2018-08-24T02:05:16.316Z,0
2018-08-24T02:05:42.455Z,0
2018-08-24T02:06:08.592Z,0
2018-08-24T02:06:34.748Z,0
2018-08-24T02:07:00.886Z,0
2018-08-24T02:07:27.017Z,0
2018-08-24T02:07:53.154Z,0
2018-08-24T02:08:19.292Z,0
2018-08-24T02:08:45.422Z,0
2018-08-24T02:09:11.563Z,0
2018-08-24T02:09:37.696Z,0
2018-08-24T02:10:03.849Z,0
2018-08-24T02:10:29.983Z,0
2018-08-24T02:10:56.125Z,0
2018-08-24T02:11:22.256Z,0
2018-08-24T02:11:48.390Z,0
2018-08-24T02:12:14.531Z,0
2018-08-24T02:12:40.664Z,0
2018-08-24T02:13:06.828Z,0
2018-08-24T02:13:32.986Z,0
2018-08-24T02:13:59.122Z,0
2018-08-24T02:14:25.294Z,0
2018-08-24T02:14:51.406Z,0
2018-08-24T02:15:17.532Z,0
2018-08-24T02:15:43.672Z,0
2018-08-24T02:16:09.801Z,0
2018-08-24T02:16:35.936Z,0
2018-08-24T02:17:02.075Z,0
2018-08-24T02:17:28.205Z,0
2018-08-24T02:17:54.340Z,0
2018-08-24T02:18:20.483Z,0
2018-08-24T02:18:46.615Z,0
2018-08-24T02:19:12.769Z,0
2018-08-24T02:19:38.913Z,0
2018-08-24T02:20:05.066Z,0
2018-08-24T02:20:31.200Z,0
2018-08-24T02:20:57.381Z,0
2018-08-24T02:21:23.523Z,0
2018-08-24T02:21:49.667Z,0
2018-08-24T02:22:15.809Z,0
2018-08-24T02:22:41.941Z,0
2018-08-24T02:23:08.072Z,0
2018-08-24T02:23:34.209Z,0
2018-08-24T02:24:00.365Z,0
2018-08-24T02:24:26.497Z,0
2018-08-24T02:24:52.639Z,0
2018-08-24T02:25:18.793Z,0
2018-08-24T02:25:44.929Z,0
2018-08-24T02:26:11.069Z,0
2018-08-24T02:26:37.232Z,0
2018-08-24T02:27:03.367Z,0
2018-08-24T02:27:29.504Z,0
2018-08-24T02:27:55.642Z,0
2018-08-24T02:28:21.771Z,0
2018-08-24T02:28:47.915Z,0
2018-08-24T02:29:14.048Z,0
2018-08-24T02:29:40.190Z,0
2018-08-24T02:30:06.346Z,0
2018-08-24T02:30:32.507Z,0
2018-08-24T02:30:58.671Z,0
2018-08-24T02:31:24.857Z,0
2018-08-24T02:31:50.989Z,0
2018-08-24T02:32:17.131Z,0
2018-08-24T02:32:43.292Z,0
2018-08-24T02:33:09.437Z,0
2018-08-24T02:33:35.556Z,0
2018-08-24T02:34:01.720Z,0
2018-08-24T02:34:27.879Z,0
2018-08-24T02:34:54.006Z,0
2018-08-24T02:35:20.138Z,0
2018-08-24T02:35:46.275Z,0
2018-08-24T02:36:12.413Z,0
2018-08-24T02:36:38.538Z,0
2018-08-24T02:37:04.678Z,0
2018-08-24T02:37:30.812Z,0
2018-08-24T02:37:56.947Z,0
2018-08-24T02:38:23.107Z,0
2018-08-24T02:38:49.289Z,0
2018-08-24T02:39:15.421Z,0
2018-08-24T02:39:41.557Z,0
2018-08-24T02:40:07.740Z,0
2018-08-24T02:40:33.883Z,0
2018-08-24T02:41:00.042Z,0
2018-08-24T02:41:26.174Z,0
2018-08-24T02:41:52.313Z,0
2018-08-24T02:42:18.527Z,0
2018-08-24T02:42:44.609Z,0
2018-08-24T02:43:10.792Z,0
2018-08-24T02:43:36.925Z,0
2018-08-24T02:44:03.061Z,0
2018-08-24T02:44:29.191Z,0
2018-08-24T02:44:55.335Z,0
2018-08-24T02:45:21.501Z,0
2018-08-24T02:45:47.634Z,0
2018-08-24T02:46:13.776Z,0
2018-08-24T02:46:39.902Z,0
2018-08-24T02:47:06.039Z,0
2018-08-24T02:47:32.246Z,0
2018-08-24T02:47:58.378Z,0
2018-08-24T02:48:24.514Z,0
2018-08-24T02:48:50.653Z,0
2018-08-24T02:49:16.788Z,0
2018-08-24T02:49:42.929Z,0
2018-08-24T02:50:09.080Z,0
2018-08-24T02:50:35.220Z,0
2018-08-24T02:51:01.358Z,0
2018-08-24T02:51:27.515Z,0
2018-08-24T02:51:53.657Z,0
2018-08-24T02:52:19.787Z,0
2018-08-24T02:52:45.962Z,0
2018-08-24T02:53:12.095Z,0
2018-08-24T02:53:38.260Z,0
2018-08-24T02:54:04.394Z,0
2018-08-24T02:54:30.527Z,0
2018-08-24T02:54:57.138Z,0
2018-08-24T02:55:23.268Z,0
2018-08-24T02:55:49.400Z,0
2018-08-24T02:56:15.538Z,0
2018-08-24T02:56:41.672Z,0
2018-08-24T02:57:07.814Z,0
2018-08-24T02:57:33.954Z,0
2018-08-24T02:58:00.095Z,0
2018-08-24T02:58:26.246Z,0
2018-08-24T02:58:52.427Z,0
2018-08-24T02:59:18.563Z,0
2018-08-24T02:59:44.701Z,0
2018-08-24T03:00:10.835Z,0
2018-08-24T03:00:36.972Z,0
2018-08-24T03:01:03.106Z,0
2018-08-24T03:01:29.239Z,0
2018-08-24T03:01:55.393Z,0
2018-08-24T03:02:21.552Z,0
2018-08-24T03:02:47.727Z,0
2018-08-24T03:03:13.855Z,0
2018-08-24T03:03:39.992Z,0
2018-08-24T03:04:06.120Z,0
2018-08-24T03:04:32.260Z,0
2018-08-24T03:04:58.400Z,0
2018-08-24T03:05:24.667Z,0
2018-08-24T03:05:50.704Z,0
2018-08-24T03:06:16.864Z,0
2018-08-24T03:06:42.994Z,0
2018-08-24T03:07:09.126Z,0
2018-08-24T03:07:35.295Z,0
2018-08-24T03:08:01.470Z,0
2018-08-24T03:08:27.689Z,0
2018-08-24T03:08:53.765Z,0
2018-08-24T03:09:19.896Z,0
2018-08-24T03:09:46.033Z,0
2018-08-24T03:10:12.190Z,0
2018-08-24T03:10:38.329Z,0
2018-08-24T03:11:04.463Z,0
2018-08-24T03:11:30.592Z,0
2018-08-24T03:11:56.755Z,0
2018-08-24T03:12:22.897Z,0
2018-08-24T03:12:49.048Z,0
2018-08-24T03:13:15.180Z,0
2018-08-24T03:13:41.315Z,0
2018-08-24T03:14:07.469Z,0
2018-08-24T03:14:33.632Z,0
2018-08-24T03:14:59.765Z,0
2018-08-24T03:15:25.900Z,0
2018-08-24T03:15:52.055Z,0
2018-08-24T03:16:18.262Z,0
2018-08-24T03:16:44.337Z,0
2018-08-24T03:17:10.503Z,0
2018-08-24T03:17:36.661Z,0
2018-08-24T03:18:02.796Z,0
2018-08-24T03:18:28.951Z,0
2018-08-24T03:18:55.112Z,0
2018-08-24T03:19:21.276Z,0
2018-08-24T03:19:47.427Z,0
2018-08-24T03:20:13.588Z,0
2018-08-24T03:20:39.731Z,0
2018-08-24T03:21:05.855Z,0
2018-08-24T03:21:32.019Z,0
2018-08-24T03:21:58.184Z,0
2018-08-24T03:22:24.371Z,0
2018-08-24T03:22:50.527Z,0
2018-08-24T03:23:16.651Z,0
2018-08-24T03:23:42.793Z,0
2018-08-24T03:24:08.943Z,0
2018-08-24T03:24:35.078Z,0
2018-08-24T03:25:01.218Z,0
2018-08-24T03:25:27.351Z,0
2018-08-24T03:25:53.483Z,0
2018-08-24T03:26:19.630Z,0
2018-08-24T03:26:45.759Z,0
2018-08-24T03:27:11.897Z,0
2018-08-24T03:27:38.031Z,0
2018-08-24T03:28:04.167Z,0
2018-08-24T03:28:30.333Z,0
2018-08-24T03:28:56.460Z,0
2018-08-24T03:29:22.606Z,0
2018-08-24T03:29:48.744Z,0
2018-08-24T03:30:14.932Z,0
2018-08-24T03:30:41.134Z,0
2018-08-24T03:31:07.277Z,0
2018-08-24T03:31:33.441Z,0
2018-08-24T03:31:59.580Z,0
2018-08-24T03:32:25.731Z,0
2018-08-24T03:32:51.896Z,0
2018-08-24T03:33:18.025Z,0
2018-08-24T03:33:44.202Z,0
2018-08-24T03:34:10.343Z,0
2018-08-24T03:34:36.480Z,0
2018-08-24T03:35:02.681Z,0
2018-08-24T03:35:28.853Z,0
2018-08-24T03:35:55.021Z,0
2018-08-24T03:36:21.154Z,0
2018-08-24T03:36:47.298Z,0
2018-08-24T03:37:13.453Z,0
2018-08-24T03:37:39.588Z,0
2018-08-24T03:38:05.753Z,0
2018-08-24T03:38:31.883Z,0
2018-08-24T03:38:58.047Z,0
2018-08-24T03:39:24.202Z,0
2018-08-24T03:39:50.332Z,0
2018-08-24T03:40:16.466Z,0
2018-08-24T03:40:42.604Z,0
2018-08-24T03:41:08.760Z,0
2018-08-24T03:41:34.891Z,0
2018-08-24T03:42:01.028Z,0
2018-08-24T03:42:27.165Z,0
2018-08-24T03:42:53.331Z,0
2018-08-24T03:43:19.490Z,0
2018-08-24T03:43:45.645Z,0
2018-08-24T03:44:11.790Z,0
2018-08-24T03:44:37.953Z,0
2018-08-24T03:45:04.114Z,0
2018-08-24T03:45:30.278Z,0
2018-08-24T03:45:56.522Z,0
2018-08-24T03:46:22.562Z,0
2018-08-24T03:46:48.713Z,0
2018-08-24T03:47:14.849Z,0
2018-08-24T03:47:41.006Z,0
2018-08-24T03:48:07.187Z,0
2018-08-24T03:48:33.342Z,0
2018-08-24T03:48:59.533Z,0
2018-08-24T03:49:25.668Z,0
2018-08-24T03:49:51.802Z,0
2018-08-24T03:50:17.931Z,0
2018-08-24T03:50:44.069Z,0
2018-08-24T03:51:10.209Z,0
2018-08-24T03:51:36.335Z,0
2018-08-24T03:52:02.469Z,0
2018-08-24T03:52:28.631Z,0
2018-08-24T03:52:54.874Z,0
2018-08-24T03:53:20.950Z,0
2018-08-24T03:53:47.070Z,0
2018-08-24T03:54:13.209Z,0
2018-08-24T03:54:39.346Z,0
2018-08-24T03:55:05.509Z,0
2018-08-24T03:55:31.674Z,0
2018-08-24T03:55:57.856Z,0
2018-08-24T03:56:23.984Z,0
2018-08-24T03:56:50.123Z,0
2018-08-24T03:57:16.254Z,0
2018-08-24T03:57:42.413Z,0
2018-08-24T03:58:08.601Z,0
2018-08-24T03:58:34.724Z,0
2018-08-24T03:59:00.857Z,0
2018-08-24T03:59:26.994Z,0
2018-08-24T03:59:53.134Z,0
2018-08-24T04:00:19.287Z,0
2018-08-24T04:00:45.417Z,0
2018-08-24T04:01:11.548Z,0
2018-08-24T04:01:37.686Z,0
2018-08-24T04:02:03.820Z,0
2018-08-24T04:02:29.949Z,0
2018-08-24T04:02:56.082Z,0
2018-08-24T04:03:22.229Z,0
2018-08-24T04:03:48.368Z,0
2018-08-24T04:04:14.509Z,0
2018-08-24T04:04:40.669Z,0
2018-08-24T04:05:06.806Z,0
2018-08-24T04:05:32.965Z,0
2018-08-24T04:05:59.095Z,0
2018-08-24T04:06:25.229Z,0
2018-08-24T04:06:51.387Z,0
2018-08-24T04:07:17.522Z,0
2018-08-24T04:07:43.649Z,0
2018-08-24T04:08:09.788Z,0
2018-08-24T04:08:35.914Z,0
2018-08-24T04:09:02.079Z,0
2018-08-24T04:09:28.208Z,0
2018-08-24T04:09:54.348Z,0
2018-08-24T04:10:20.520Z,0
2018-08-24T04:10:46.674Z,0
2018-08-24T04:11:12.850Z,0
2018-08-24T04:11:38.990Z,0
2018-08-24T04:12:05.132Z,0
2018-08-24T04:12:31.287Z,0
2018-08-24T04:12:57.666Z,0
2018-08-24T04:13:23.629Z,0
2018-08-24T04:13:49.758Z,0
2018-08-24T04:14:15.916Z,0
2018-08-24T04:14:42.065Z,0
2018-08-24T04:15:08.219Z,0
2018-08-24T04:15:34.375Z,0
2018-08-24T04:16:00.502Z,0
2018-08-24T04:16:26.642Z,0
2018-08-24T04:16:52.776Z,0
2018-08-24T04:17:18.946Z,0
2018-08-24T04:17:45.089Z,0
2018-08-24T04:18:11.222Z,0
2018-08-24T04:18:37.405Z,0
2018-08-24T04:19:03.569Z,0
2018-08-24T04:19:29.772Z,0
2018-08-24T04:19:55.870Z,0
2018-08-24T04:20:22.001Z,0
2018-08-24T04:20:48.159Z,0
2018-08-24T04:21:14.341Z,0
2018-08-24T04:21:40.470Z,0
2018-08-24T04:22:06.609Z,0
2018-08-24T04:22:32.745Z,0
2018-08-24T04:22:58.885Z,0
2018-08-24T04:23:25.036Z,0
2018-08-24T04:23:51.194Z,0
2018-08-24T04:24:17.357Z,0
2018-08-24T04:24:43.490Z,0
2018-08-24T04:25:09.626Z,0
2018-08-24T04:25:35.818Z,0
2018-08-24T04:26:02.049Z,0
2018-08-24T04:26:28.143Z,0
2018-08-24T04:26:54.281Z,0
2018-08-24T04:27:20.418Z,0
2018-08-24T04:27:46.550Z,0
2018-08-24T04:28:12.717Z,0
2018-08-24T04:28:38.852Z,0
2018-08-24T04:29:05.010Z,0
2018-08-24T04:29:31.167Z,0
2018-08-24T04:29:57.326Z,0
2018-08-24T04:30:23.523Z,0
2018-08-24T04:30:49.690Z,0
2018-08-24T04:31:15.868Z,0
2018-08-24T04:31:42.025Z,5
2018-08-24T04:32:08.161Z,5
2018-08-24T04:32:34.319Z,5
2018-08-24T04:33:00.460Z,5
2018-08-24T04:33:26.616Z,5
2018-08-24T04:33:52.750Z,5
2018-08-24T04:34:18.890Z,5
2018-08-24T04:34:45.063Z,10
2018-08-24T04:35:11.211Z,10
2018-08-24T04:35:37.385Z,15
2018-08-24T04:36:03.545Z,15
2018-08-24T04:36:29.699Z,15
2018-08-24T04:36:55.839Z,20
2018-08-24T04:37:22.005Z,20
2018-08-24T04:37:48.132Z,20
2018-08-24T04:38:14.284Z,20
2018-08-24T04:38:40.424Z,20
2018-08-24T04:39:06.565Z,15
2018-08-24T04:39:32.719Z,15
2018-08-24T04:39:58.883Z,20
2018-08-24T04:40:25.152Z,20
2018-08-24T04:40:51.246Z,20
2018-08-24T04:41:17.430Z,25
2018-08-24T04:41:43.553Z,25
2018-08-24T04:42:09.691Z,30
2018-08-24T04:42:35.824Z,30
2018-08-24T04:43:01.961Z,30
2018-08-24T04:43:28.102Z,30
2018-08-24T04:43:54.262Z,30
2018-08-24T04:44:20.422Z,30
2018-08-24T04:44:46.553Z,30
2018-08-24T04:45:12.725Z,30
2018-08-24T04:45:38.978Z,35
2018-08-24T04:46:05.014Z,35
2018-08-24T04:46:31.149Z,35
2018-08-24T04:46:57.306Z,35
2018-08-24T04:47:23.491Z,35
2018-08-24T04:47:49.643Z,35
2018-08-24T04:48:15.780Z,35
2018-08-24T04:48:41.949Z,35
2018-08-24T04:49:08.075Z,35
2018-08-24T04:49:34.209Z,35
2018-08-24T04:50:00.351Z,35
2018-08-24T04:50:26.485Z,35
2018-08-24T04:50:52.645Z,35
2018-08-24T04:51:18.786Z,35
2018-08-24T04:51:44.910Z,35
2018-08-24T04:52:11.068Z,35
2018-08-24T04:52:37.200Z,35
2018-08-24T04:53:03.333Z,35
2018-08-24T04:53:29.468Z,35
2018-08-24T04:53:55.607Z,35
2018-08-24T04:54:21.744Z,35
2018-08-24T04:54:47.898Z,35
2018-08-24T04:55:14.057Z,35
2018-08-24T04:55:40.237Z,35
2018-08-24T04:56:06.398Z,35
2018-08-24T04:56:32.551Z,35
2018-08-24T04:56:58.688Z,35
2018-08-24T04:57:24.831Z,35
2018-08-24T04:57:50.964Z,35
2018-08-24T04:58:17.107Z,35
2018-08-24T04:58:43.255Z,35
2018-08-24T04:59:09.426Z,35
2018-08-24T04:59:35.575Z,35
2018-08-24T05:00:01.703Z,30
2018-08-24T05:00:27.881Z,35
2018-08-24T05:00:54.013Z,35
2018-08-24T05:01:20.153Z,40
2018-08-24T05:01:46.280Z,35
2018-08-24T05:02:12.446Z,35
2018-08-24T05:02:38.604Z,35
2018-08-24T05:03:04.743Z,35
2018-08-24T05:03:30.893Z,35
2018-08-24T05:03:57.067Z,35
2018-08-24T05:04:23.223Z,40
2018-08-24T05:04:49.378Z,40
2018-08-24T05:05:15.509Z,40
2018-08-24T05:05:41.695Z,40
2018-08-24T05:06:07.795Z,40
2018-08-24T05:06:33.933Z,40
2018-08-24T05:07:00.070Z,40
2018-08-24T05:07:26.230Z,40
2018-08-24T05:07:52.362Z,40
2018-08-24T05:08:18.501Z,45
2018-08-24T05:08:44.628Z,45
2018-08-24T05:09:10.776Z,45
2018-08-24T05:09:36.948Z,45
2018-08-24T05:10:03.092Z,45
2018-08-24T05:10:29.246Z,45
2018-08-24T05:10:55.391Z,45
2018-08-24T05:11:21.545Z,45
2018-08-24T05:11:47.679Z,50
2018-08-24T05:12:13.810Z,50
2018-08-24T05:12:39.947Z,50
2018-08-24T05:13:06.079Z,50
2018-08-24T05:13:32.238Z,50
2018-08-24T05:13:58.375Z,50
2018-08-24T05:14:24.512Z,50
2018-08-24T05:14:50.675Z,55
2018-08-24T05:15:16.874Z,55
2018-08-24T05:15:43.026Z,55
2018-08-24T05:16:09.180Z,55
2018-08-24T05:16:35.324Z,55
2018-08-24T05:17:01.453Z,55
2018-08-24T05:17:27.598Z,55
2018-08-24T05:17:53.753Z,60
2018-08-24T05:18:19.889Z,60
2018-08-24T05:18:46.025Z,60
2018-08-24T05:19:12.185Z,60
2018-08-24T05:19:38.322Z,60
2018-08-24T05:20:04.469Z,60
2018-08-24T05:20:30.605Z,60
2018-08-24T05:20:56.742Z,60
2018-08-24T05:21:22.940Z,65
2018-08-24T05:21:49.009Z,65
2018-08-24T05:22:15.216Z,65
2018-08-24T05:22:41.349Z,65
2018-08-24T05:23:07.481Z,65
2018-08-24T05:23:33.620Z,65
2018-08-24T05:23:59.752Z,65
2018-08-24T05:24:25.889Z,65
2018-08-24T05:24:52.155Z,60
2018-08-24T05:25:18.222Z,60
2018-08-24T05:25:44.383Z,60
2018-08-24T05:26:10.521Z,60
2018-08-24T05:26:36.656Z,60
2018-08-24T05:27:02.787Z,60
2018-08-24T05:27:28.920Z,60
2018-08-24T05:27:55.079Z,60
2018-08-24T05:28:21.233Z,60
2018-08-24T05:28:47.375Z,60
2018-08-24T05:29:13.535Z,60
2018-08-24T05:29:39.675Z,60
2018-08-24T05:30:05.824Z,60
2018-08-24T05:30:31.961Z,60
2018-08-24T05:30:58.110Z,60
2018-08-24T05:31:24.273Z,60
2018-08-24T05:31:50.436Z,65
2018-08-24T05:32:16.600Z,65
2018-08-24T05:32:42.753Z,65
2018-08-24T05:33:08.893Z,65
2018-08-24T05:33:35.024Z,70
2018-08-24T05:34:01.155Z,70
2018-08-24T05:34:27.317Z,70
2018-08-24T05:34:53.447Z,75
2018-08-24T05:35:19.581Z,75
2018-08-24T05:35:45.846Z,75
2018-08-24T05:36:11.880Z,75
2018-08-24T05:36:38.013Z,75
2018-08-24T05:37:04.151Z,80
2018-08-24T05:37:30.283Z,80
2018-08-24T05:37:56.420Z,80
2018-08-24T05:38:22.555Z,80
2018-08-24T05:38:48.713Z,80
2018-08-24T05:39:14.861Z,80
2018-08-24T05:39:41.001Z,80
2018-08-24T05:40:07.176Z,80
2018-08-24T05:40:33.320Z,85
2018-08-24T05:40:59.464Z,85
2018-08-24T05:41:25.642Z,85
2018-08-24T05:41:51.792Z,85
2018-08-24T05:42:17.948Z,85
2018-08-24T05:42:44.085Z,90
2018-08-24T05:43:10.212Z,90
2018-08-24T05:43:36.349Z,90
2018-08-24T05:44:02.490Z,90
2018-08-24T05:44:28.628Z,90
2018-08-24T05:44:54.786Z,95
2018-08-24T05:45:20.948Z,95
2018-08-24T05:45:47.080Z,95
2018-08-24T05:46:13.213Z,95
2018-08-24T05:46:39.348Z,95
2018-08-24T05:47:05.488Z,95
2018-08-24T05:47:31.625Z,95
2018-08-24T05:47:57.794Z,95
2018-08-24T05:48:23.924Z,95
2018-08-24T05:48:50.141Z,95
2018-08-24T05:49:16.240Z,95
2018-08-24T05:49:42.396Z,95
2018-08-24T05:50:08.587Z,95
2018-08-24T05:50:34.724Z,95
2018-08-24T05:51:00.856Z,100
2018-08-24T05:51:26.998Z,100
2018-08-24T05:51:53.147Z,100
2018-08-24T05:52:19.287Z,100
2018-08-24T05:52:45.419Z,100
2018-08-24T05:53:11.548Z,100
2018-08-24T05:53:37.693Z,100
2018-08-24T05:54:03.835Z,100
2018-08-24T05:54:30.029Z,100
2018-08-24T05:54:56.187Z,100
2018-08-24T05:55:22.346Z,100
2018-08-24T05:55:48.588Z,100
2018-08-24T05:56:14.704Z,100
2018-08-24T05:56:40.832Z,100
2018-08-24T05:57:06.970Z,100
2018-08-24T05:57:33.113Z,100
2018-08-24T05:57:59.264Z,100
2018-08-24T05:58:25.443Z,100
2018-08-24T05:58:51.583Z,100
2018-08-24T05:59:17.749Z,100
2018-08-24T05:59:43.955Z,100
2018-08-24T06:00:10.058Z,100
2018-08-24T06:00:36.187Z,100
2018-08-24T06:01:02.320Z,100
2018-08-24T06:01:28.487Z,100
2018-08-24T06:01:54.653Z,100
2018-08-24T06:02:20.807Z,100
2018-08-24T06:02:46.942Z,100
2018-08-24T06:03:13.082Z,105
2018-08-24T06:03:39.246Z,105
2018-08-24T06:04:05.415Z,105
2018-08-24T06:04:31.597Z,105
2018-08-24T06:04:57.713Z,105
2018-08-24T06:05:23.875Z,105
2018-08-24T06:05:50.091Z,105
2018-08-24T06:06:16.191Z,110
2018-08-24T06:06:42.331Z,110
2018-08-24T06:07:08.468Z,115
2018-08-24T06:07:34.597Z,115
2018-08-24T06:08:00.751Z,120
2018-08-24T06:08:26.875Z,125
2018-08-24T06:08:53.011Z,130
2018-08-24T06:09:19.142Z,135
2018-08-24T06:09:45.281Z,140
2018-08-24T06:10:11.419Z,145
2018-08-24T06:10:37.559Z,150
2018-08-24T06:11:03.689Z,155
2018-08-24T06:11:29.837Z,160
2018-08-24T06:11:55.988Z,165
2018-08-24T06:12:22.141Z,165
2018-08-24T06:12:48.276Z,170
2018-08-24T06:13:14.437Z,170
2018-08-24T06:13:40.571Z,175
2018-08-24T06:14:06.706Z,175
2018-08-24T06:14:32.867Z,180
2018-08-24T06:14:59.002Z,180
2018-08-24T06:15:25.162Z,180
2018-08-24T06:15:51.316Z,175
2018-08-24T06:16:17.499Z,165
2018-08-24T06:16:43.739Z,155
2018-08-24T06:17:09.792Z,155
2018-08-24T06:17:35.932Z,155
2018-08-24T06:18:02.105Z,150
2018-08-24T06:18:28.249Z,140
2018-08-24T06:18:54.381Z,130
2018-08-24T06:19:20.520Z,125
2018-08-24T06:19:46.652Z,115
2018-08-24T06:20:12.794Z,100
2018-08-24T06:20:38.934Z,95
2018-08-24T06:21:05.063Z,90
2018-08-24T06:21:31.203Z,85